createdAt,value
2022-09-13T00:00:54.752Z,14.96
2022-09-13T00:03:33.637Z,14.74
2022-09-13T00:06:08.808Z,15.19
2022-09-13T00:08:37.194Z,14.69
2022-09-13T00:11:05.814Z,14.55
2022-09-13T00:13:35.503Z,14.81
2022-09-13T00:16:05.453Z,14.52
2022-09-13T00:18:34.819Z,14.70
2022-09-13T00:21:07.935Z,14.88
2022-09-13T00:23:36.351Z,14.43
2022-09-13T00:26:06.515Z,14.74
2022-09-13T00:28:36.166Z,14.76
2022-09-13T00:31:05.974Z,14.61
2022-09-13T00:33:34.518Z,14.56
2022-09-13T00:36:05.401Z,14.77
2022-09-13T00:38:33.983Z,14.52
2022-09-13T00:41:02.062Z,14.33
2022-09-13T00:43:45.521Z,15.00
2022-09-13T00:46:27.998Z,14.78
2022-09-13T00:48:58.841Z,14.62
2022-09-13T00:51:27.726Z,14.38
2022-09-13T00:53:57.354Z,14.58
2022-09-13T00:56:28.579Z,14.54
2022-09-13T00:59:01.472Z,14.65
2022-09-13T01:01:33.401Z,14.61
2022-09-13T01:04:02.620Z,14.44
2022-09-13T01:06:33.272Z,14.53
2022-09-13T01:09:04.274Z,14.47
2022-09-13T01:11:37.889Z,14.51
2022-09-13T01:14:08.407Z,14.44
2022-09-13T01:16:36.813Z,14.01
2022-09-13T01:19:05.373Z,14.08
2022-09-13T01:22:03.927Z,14.75
2022-09-13T01:25:09.964Z,14.80
2022-09-13T01:28:00.108Z,14.56
2022-09-13T01:30:32.445Z,14.40
2022-09-13T01:33:17.067Z,14.63
2022-09-13T01:35:56.475Z,14.57
2022-09-13T01:38:38.096Z,14.58
2022-09-13T01:41:13.713Z,14.46
2022-09-13T01:43:50.335Z,14.56
2022-09-13T01:46:25.015Z,14.53
2022-09-13T01:48:57.206Z,14.52
2022-09-13T01:51:30.477Z,14.52
2022-09-13T01:54:14.893Z,14.64
2022-09-13T01:56:50.081Z,14.45
2022-09-13T01:59:24.223Z,14.37
2022-09-13T02:01:58.097Z,14.41
2022-09-13T02:04:28.958Z,14.28
2022-09-13T02:07:02.422Z,14.37
2022-09-13T02:09:33.208Z,14.19
2022-09-13T02:12:06.543Z,14.33
2022-09-13T02:14:37.317Z,14.29
2022-09-13T02:17:08.850Z,14.36
2022-09-13T02:19:39.494Z,14.14
2022-09-13T02:22:09.476Z,14.27
2022-09-13T02:24:40.566Z,14.41
2022-09-13T02:27:11.718Z,14.38
2022-09-13T02:29:42.045Z,14.43
2022-09-13T02:32:15.852Z,14.56
2022-09-13T02:34:47.443Z,14.46
2022-09-13T02:37:16.089Z,14.06
2022-09-13T02:39:49.246Z,14.40
2022-09-13T02:42:20.059Z,14.23
2022-09-13T02:44:49.963Z,14.23
2022-09-13T02:47:30.437Z,14.44
2022-09-13T02:50:09.377Z,14.35
2022-09-13T02:52:46.373Z,14.43
2022-09-13T02:55:19.362Z,14.34
2022-09-13T02:57:55.541Z,14.42
2022-09-13T03:00:23.993Z,13.87
2022-09-13T03:02:54.763Z,14.21
2022-09-13T03:05:23.210Z,13.73
2022-09-13T03:07:51.965Z,13.94
2022-09-13T03:10:20.745Z,13.65
2022-09-13T03:13:02.567Z,14.20
2022-09-13T03:15:41.927Z,14.15
2022-09-13T03:18:20.615Z,14.19
2022-09-13T03:20:59.569Z,14.29
2022-09-13T03:23:42.285Z,14.38
2022-09-13T03:26:22.629Z,14.34
2022-09-13T03:28:56.737Z,14.20
2022-09-13T03:31:30.309Z,14.18
2022-09-13T03:34:03.673Z,14.16
2022-09-13T03:36:36.541Z,14.15
2022-09-13T03:39:14.833Z,14.13
2022-09-13T03:41:46.132Z,13.99
2022-09-13T03:44:15.840Z,13.95
2022-09-13T03:46:46.009Z,13.95
2022-09-13T03:49:17.113Z,13.95
2022-09-13T03:51:47.293Z,13.77
2022-09-13T03:54:19.501Z,13.76
2022-09-13T03:57:11.884Z,13.87
2022-09-13T03:59:43.457Z,13.47
2022-09-13T04:02:12.650Z,13.26
2022-09-13T04:04:43.389Z,13.36
2022-09-13T04:07:13.697Z,13.26
2022-09-13T04:09:42.026Z,13.00
2022-09-13T04:12:11.146Z,12.88
2022-09-13T04:14:39.482Z,12.84
2022-09-13T04:17:07.771Z,12.83
2022-09-13T04:19:36.001Z,12.86
2022-09-13T04:22:06.168Z,13.17
2022-09-13T04:24:34.411Z,12.81
2022-09-13T04:27:02.751Z,12.86
2022-09-13T04:29:32.015Z,12.91
2022-09-13T04:32:00.533Z,13.00
2022-09-13T04:34:28.807Z,13.09
2022-09-13T04:36:57.290Z,13.17
2022-09-13T04:39:26.867Z,13.69
2022-09-13T04:41:55.358Z,13.61
2022-09-13T04:44:24.694Z,13.88
2022-09-13T04:46:53.165Z,14.12
2022-09-13T04:49:22.105Z,14.49
2022-09-13T04:51:50.975Z,14.94
2022-09-13T04:54:19.076Z,15.33
2022-09-13T04:56:49.033Z,16.04
2022-09-13T04:59:17.681Z,16.15
2022-09-13T05:01:46.060Z,16.45
2022-09-13T05:04:14.687Z,16.90
2022-09-13T05:06:43.134Z,17.31
2022-09-13T05:09:14.211Z,18.08
2022-09-13T05:11:43.161Z,18.34
2022-09-13T05:14:13.356Z,18.82
2022-09-13T05:16:41.954Z,18.83
2022-09-13T05:19:10.724Z,19.40
2022-09-13T05:21:39.608Z,19.60
2022-09-13T05:24:07.836Z,20.01
2022-09-13T05:26:36.514Z,20.30
2022-09-13T05:29:05.456Z,20.94
2022-09-13T05:31:37.009Z,21.70
2022-09-13T05:34:07.749Z,22.17
2022-09-13T05:36:36.255Z,22.43
2022-09-13T05:39:29.523Z,22.97
2022-09-13T05:41:54.160Z,23.44
2022-09-13T05:44:23.110Z,23.90
2022-09-13T05:46:52.685Z,24.63
2022-09-13T05:49:21.060Z,24.74
2022-09-13T05:51:49.410Z,25.30
2022-09-13T05:54:17.839Z,25.86
2022-09-13T05:56:46.286Z,26.27
2022-09-13T05:59:15.279Z,26.73
2022-09-13T06:01:43.902Z,26.99
2022-09-13T06:04:14.654Z,27.68
2022-09-13T06:06:43.282Z,27.75
2022-09-13T06:09:12.080Z,27.97
2022-09-13T06:11:40.808Z,27.94
2022-09-13T06:14:08.937Z,28.20
2022-09-13T06:16:37.483Z,28.40
2022-09-13T06:19:05.725Z,28.63
2022-09-13T06:21:35.358Z,28.90
2022-09-13T06:24:04.053Z,28.83
2022-09-13T06:26:32.948Z,28.62
2022-09-13T06:29:01.197Z,28.77
2022-09-13T06:31:29.874Z,29.23
2022-09-13T06:34:00.028Z,29.54
2022-09-13T06:36:28.268Z,29.63
2022-09-13T06:39:00.708Z,30.20
2022-09-13T06:41:29.665Z,29.87
2022-09-13T06:43:58.987Z,29.82
2022-09-13T06:46:28.131Z,29.90
2022-09-13T06:48:57.885Z,30.17
2022-09-13T06:51:27.083Z,30.92
2022-09-13T06:53:56.799Z,30.90
2022-09-13T06:56:28.772Z,31.47
2022-09-13T06:58:58.278Z,31.33
2022-09-13T07:01:28.606Z,31.74
2022-09-13T07:04:00.222Z,32.41
2022-09-13T07:06:30.380Z,32.64
2022-09-13T07:08:59.781Z,32.55
2022-09-13T07:11:32.023Z,32.49
2022-09-13T07:14:01.941Z,32.04
2022-09-13T07:16:31.457Z,32.42
2022-09-13T07:19:00.811Z,32.59
2022-09-13T07:21:30.274Z,33.03
2022-09-13T07:23:58.428Z,33.42
2022-09-13T07:26:27.536Z,34.32
2022-09-13T07:28:59.922Z,35.05
2022-09-13T07:31:29.583Z,34.11
2022-09-13T07:33:59.761Z,33.33
2022-09-13T07:36:29.908Z,33.14
2022-09-13T07:38:59.233Z,33.23
2022-09-13T07:41:29.335Z,33.66
2022-09-13T07:44:00.769Z,34.38
2022-09-13T07:46:32.489Z,34.96
2022-09-13T07:49:02.104Z,35.21
2022-09-13T07:51:31.610Z,35.15
2022-09-13T07:54:01.373Z,34.63
2022-09-13T07:56:31.233Z,34.62
2022-09-13T07:59:02.258Z,35.32
2022-09-13T08:01:34.484Z,36.19
2022-09-13T08:04:05.163Z,37.22
2022-09-13T08:06:34.792Z,37.78
2022-09-13T08:09:03.395Z,38.39
2022-09-13T08:11:33.268Z,39.09
2022-09-13T08:14:03.575Z,40.15
2022-09-13T08:16:32.343Z,41.16
2022-09-13T08:19:03.266Z,41.76
2022-09-13T08:21:34.746Z,41.52
2022-09-13T08:24:03.778Z,40.21
2022-09-13T08:26:33.803Z,39.32
2022-09-13T08:29:05.132Z,38.86
2022-09-13T08:31:34.537Z,38.54
2022-09-13T08:34:03.104Z,37.91
2022-09-13T08:36:31.690Z,37.96
2022-09-13T08:39:02.045Z,38.81
2022-09-13T08:41:57.435Z,39.46
2022-09-13T08:44:30.242Z,38.91
2022-09-13T08:47:08.240Z,38.97
2022-09-13T08:49:41.563Z,38.51
2022-09-13T08:52:21.967Z,38.66
2022-09-13T08:54:50.867Z,39.67
2022-09-13T08:57:24.073Z,39.67
2022-09-13T08:59:59.324Z,40.25
2022-09-13T09:02:58.032Z,40.15
2022-09-13T09:05:28.905Z,39.38
2022-09-13T09:08:00.915Z,39.37
2022-09-13T09:10:31.261Z,38.86
2022-09-13T09:13:02.651Z,38.27
2022-09-13T09:15:36.134Z,37.56
2022-09-13T09:18:07.308Z,36.97
2022-09-13T09:20:39.542Z,37.77
2022-09-13T09:23:19.073Z,38.44
2022-09-13T09:25:52.168Z,39.28
2022-09-13T09:28:21.022Z,39.35
2022-09-13T09:31:00.146Z,40.45
2022-09-13T09:33:43.053Z,42.52
2022-09-13T09:36:17.411Z,43.91
2022-09-13T09:38:46.232Z,43.33
2022-09-13T09:41:19.815Z,41.82
2022-09-13T09:43:52.922Z,39.54
2022-09-13T09:46:27.298Z,38.71
2022-09-13T09:48:58.326Z,38.91
2022-09-13T09:51:27.272Z,39.29
2022-09-13T09:54:02.133Z,40.33
2022-09-13T09:56:32.380Z,40.86
2022-09-13T09:59:00.687Z,41.06
2022-09-13T10:01:32.452Z,41.36
2022-09-13T10:04:08.783Z,40.62
2022-09-13T10:06:39.049Z,39.12
2022-09-13T10:09:07.700Z,39.28
2022-09-13T10:11:45.353Z,38.32
2022-09-13T10:14:33.241Z,38.55
2022-09-13T10:17:11.444Z,38.12
2022-09-13T10:19:40.218Z,37.19
2022-09-13T10:22:13.097Z,37.67
2022-09-13T10:24:41.837Z,37.66
2022-09-13T10:27:23.451Z,39.13
2022-09-13T10:29:54.758Z,39.67
2022-09-13T10:32:25.773Z,40.25
2022-09-13T10:34:54.337Z,39.61
2022-09-13T10:37:24.228Z,39.52
2022-09-13T10:39:59.013Z,40.63
2022-09-13T10:42:28.177Z,41.66
2022-09-13T10:44:58.059Z,42.96
2022-09-13T10:47:31.268Z,44.58
2022-09-13T10:50:00.506Z,44.96
2022-09-13T10:52:34.717Z,45.59
2022-09-13T10:55:25.503Z,45.86
2022-09-13T10:57:55.136Z,45.67
2022-09-13T11:00:25.757Z,45.77
2022-09-13T11:03:04.557Z,46.42
2022-09-13T11:05:37.360Z,46.63
2022-09-13T11:08:14.539Z,47.24
2022-09-13T11:10:51.190Z,47.76
2022-09-13T11:13:26.401Z,47.66
2022-09-13T11:15:59.522Z,46.51
2022-09-13T11:18:56.412Z,46.06
2022-09-13T11:21:46.636Z,45.83
2022-09-13T11:24:24.914Z,45.75
2022-09-13T11:26:59.516Z,44.96
2022-09-13T11:29:37.020Z,44.30
2022-09-13T11:32:14.653Z,43.94
2022-09-13T11:34:51.379Z,44.38
2022-09-13T11:37:30.388Z,44.55
2022-09-13T11:40:09.291Z,43.47
2022-09-13T11:42:45.174Z,41.59
2022-09-13T11:45:24.354Z,39.71
2022-09-13T11:48:16.229Z,37.68
2022-09-13T11:50:53.032Z,35.77
2022-09-13T11:53:38.523Z,34.49
2022-09-13T11:56:08.677Z,33.25
2022-09-13T11:58:41.116Z,32.45
2022-09-13T12:01:12.569Z,31.77
2022-09-13T12:03:45.094Z,31.39
2022-09-13T12:06:20.508Z,30.93
2022-09-13T12:08:51.640Z,30.34
2022-09-13T12:11:23.294Z,30.11
2022-09-13T12:13:53.343Z,29.60
2022-09-13T12:16:25.174Z,29.42
2022-09-13T12:18:56.971Z,29.15
2022-09-13T12:21:29.290Z,28.88
2022-09-13T12:24:02.834Z,28.51
2022-09-13T12:26:33.439Z,28.19
2022-09-13T12:29:05.591Z,28.15
2022-09-13T12:31:34.075Z,27.62
2022-09-13T12:34:06.959Z,28.03
2022-09-13T12:36:46.904Z,28.18
2022-09-13T12:39:35.679Z,28.29
2022-09-13T12:42:27.508Z,28.40
2022-09-13T12:45:11.643Z,28.50
2022-09-13T12:48:12.597Z,28.50
2022-09-13T12:50:46.343Z,28.80
2022-09-13T12:53:28.287Z,28.36
2022-09-13T12:56:04.999Z,28.44
2022-09-13T12:58:53.516Z,28.43
2022-09-13T13:01:23.042Z,28.00
2022-09-13T13:03:54.660Z,28.44
2022-09-13T13:06:28.574Z,28.60
2022-09-13T13:08:59.840Z,28.41
2022-09-13T13:11:31.485Z,28.10
2022-09-13T13:14:02.429Z,27.97
2022-09-13T13:16:31.597Z,28.63
2022-09-13T13:19:00.512Z,27.58
2022-09-13T13:21:32.361Z,27.60
2022-09-13T13:24:37.980Z,27.85
2022-09-13T13:27:46.246Z,27.68
2022-09-13T13:30:40.535Z,27.73
2022-09-13T13:33:16.597Z,27.46
2022-09-13T13:35:45.057Z,26.88
2022-09-13T13:38:18.361Z,27.07
2022-09-13T13:40:50.672Z,27.05
2022-09-13T13:43:33.840Z,27.44
2022-09-13T13:46:28.372Z,27.60
2022-09-13T13:48:56.953Z,27.01
2022-09-13T13:51:27.779Z,27.20
2022-09-13T13:53:59.769Z,27.32
2022-09-13T13:56:35.219Z,27.37
2022-09-13T13:59:10.772Z,27.40
2022-09-13T14:01:45.088Z,27.31
2022-09-13T14:04:54.885Z,27.70
2022-09-13T14:07:34.855Z,27.42
2022-09-13T14:10:07.051Z,27.12
2022-09-13T14:12:47.440Z,27.13
2022-09-13T14:15:28.345Z,27.04
2022-09-13T14:18:32.294Z,26.90
2022-09-13T14:21:02.011Z,26.35
2022-09-13T14:23:31.285Z,26.16
2022-09-13T14:26:01.093Z,26.34
2022-09-13T14:28:29.794Z,26.22
2022-09-13T14:31:00.255Z,26.41
2022-09-13T14:33:32.187Z,26.45
2022-09-13T14:36:03.242Z,26.53
2022-09-13T14:38:35.457Z,26.41
2022-09-13T14:41:15.252Z,26.73
2022-09-13T14:43:44.072Z,26.22
2022-09-13T14:46:18.929Z,26.50
2022-09-13T14:48:51.802Z,26.37
2022-09-13T14:51:23.170Z,26.27
2022-09-13T14:53:52.298Z,26.82
2022-09-13T14:56:29.081Z,26.14
2022-09-13T14:58:59.710Z,25.68
2022-09-13T15:01:31.670Z,25.86
2022-09-13T15:04:01.502Z,25.52
2022-09-13T15:06:31.617Z,25.60
2022-09-13T15:09:02.404Z,25.69
2022-09-13T15:11:34.055Z,25.76
2022-09-13T15:14:04.539Z,25.54
2022-09-13T15:16:34.453Z,25.58
2022-09-13T15:19:32.053Z,25.99
2022-09-13T15:22:12.801Z,25.43
2022-09-13T15:24:45.037Z,25.21
2022-09-13T15:27:26.343Z,25.08
2022-09-13T15:29:56.679Z,24.60
2022-09-13T15:32:34.830Z,24.58
2022-09-13T15:35:03.971Z,24.25
2022-09-13T15:37:35.930Z,24.34
2022-09-13T15:40:14.815Z,24.30
2022-09-13T15:42:47.250Z,24.09
2022-09-13T15:45:15.677Z,23.73
2022-09-13T15:47:48.012Z,24.02
2022-09-13T15:50:25.040Z,24.09
2022-09-13T15:52:53.253Z,23.51
2022-09-13T15:55:21.756Z,23.65
2022-09-13T15:57:50.191Z,23.68
2022-09-13T16:00:21.549Z,24.16
2022-09-13T16:02:51.862Z,24.33
2022-09-13T16:05:20.578Z,24.08
2022-09-13T16:07:49.072Z,24.14
2022-09-13T16:10:20.732Z,24.35
2022-09-13T16:12:49.202Z,24.14
2022-09-13T16:15:18.033Z,24.10
2022-09-13T16:17:46.500Z,24.18
2022-09-13T16:20:17.110Z,24.56
2022-09-13T16:22:45.382Z,24.17
2022-09-13T16:25:14.362Z,24.27
2022-09-13T16:27:43.105Z,24.25
2022-09-13T16:30:13.278Z,24.31
2022-09-13T16:32:42.488Z,24.04
2022-09-13T16:35:11.327Z,24.10
2022-09-13T16:37:41.222Z,24.21
2022-09-13T16:40:10.754Z,24.02
2022-09-13T16:42:39.491Z,23.78
2022-09-13T16:45:09.070Z,23.92
2022-09-13T16:47:37.810Z,23.69
2022-09-13T16:50:07.700Z,23.84
2022-09-13T16:52:36.366Z,23.58
2022-09-13T16:55:08.447Z,23.56
2022-09-13T16:57:37.419Z,22.97
2022-09-13T17:00:09.177Z,22.92
2022-09-13T17:02:37.877Z,22.54
2022-09-13T17:05:08.874Z,22.38
2022-09-13T17:07:38.098Z,22.23
2022-09-13T17:10:09.885Z,22.57
2022-09-13T17:12:38.300Z,22.28
2022-09-13T17:15:08.096Z,22.34
2022-09-13T17:17:36.764Z,22.16
2022-09-13T17:20:09.411Z,22.40
2022-09-13T17:22:38.355Z,22.07
2022-09-13T17:25:09.502Z,22.18
2022-09-13T17:27:38.756Z,21.81
2022-09-13T17:30:09.322Z,21.75
2022-09-13T17:32:37.820Z,21.64
2022-09-13T17:35:07.788Z,21.51
2022-09-13T17:37:36.900Z,21.35
2022-09-13T17:40:06.359Z,21.47
2022-09-13T17:42:36.591Z,21.62
2022-09-13T17:45:06.383Z,21.35
2022-09-13T17:47:35.359Z,21.14
2022-09-13T17:50:06.312Z,21.00
2022-09-13T17:52:35.426Z,20.99
2022-09-13T17:55:03.738Z,21.03
2022-09-13T17:57:32.278Z,21.21
2022-09-13T18:00:02.948Z,21.43
2022-09-13T18:02:31.344Z,21.10
2022-09-13T18:05:04.597Z,21.20
2022-09-13T18:07:34.218Z,21.05
2022-09-13T18:10:03.063Z,21.12
2022-09-13T18:12:32.168Z,21.03
2022-09-13T18:15:03.375Z,21.35
2022-09-13T18:17:31.879Z,21.10
2022-09-13T18:20:00.288Z,21.10
2022-09-13T18:22:28.770Z,20.97
2022-09-13T18:24:57.266Z,20.99
2022-09-13T18:27:26.479Z,21.01
2022-09-13T18:29:55.138Z,20.92
2022-09-13T18:32:25.250Z,21.14
2022-09-13T18:34:54.166Z,20.87
2022-09-13T18:37:23.643Z,20.93
2022-09-13T18:39:53.221Z,20.83
2022-09-13T18:42:22.675Z,20.79
2022-09-13T18:44:54.026Z,20.88
2022-09-13T18:47:23.011Z,20.87
2022-09-13T18:49:53.230Z,21.15
2022-09-13T18:52:22.490Z,20.82
2022-09-13T18:54:52.023Z,20.80
2022-09-13T18:57:21.701Z,20.70
2022-09-13T18:59:50.867Z,20.70
2022-09-13T19:02:21.206Z,20.89
2022-09-13T19:04:51.179Z,20.65
2022-09-13T19:07:23.571Z,20.94
2022-09-13T19:09:53.530Z,20.60
2022-09-13T19:12:23.823Z,20.38
2022-09-13T19:14:55.545Z,20.50
2022-09-13T19:17:24.662Z,20.35
2022-09-13T19:19:55.178Z,20.30
2022-09-13T19:22:27.786Z,20.31
2022-09-13T19:24:57.161Z,19.95
2022-09-13T19:27:29.724Z,20.11
2022-09-13T19:29:59.336Z,20.18
2022-09-13T19:32:28.206Z,20.21
2022-09-13T19:34:57.946Z,20.31
2022-09-13T19:37:29.023Z,20.43
2022-09-13T19:39:59.656Z,20.32
2022-09-13T19:42:29.983Z,20.16
2022-09-13T19:45:00.322Z,20.30
2022-09-13T19:48:13.077Z,20.06
2022-09-13T19:50:19.694Z,19.89
2022-09-13T19:52:50.389Z,20.12
2022-09-13T19:55:21.512Z,19.80
2022-09-13T19:57:50.691Z,20.67
2022-09-13T20:00:20.551Z,19.92
2022-09-13T20:02:50.100Z,20.00
2022-09-13T20:05:19.836Z,19.90
2022-09-13T20:07:49.609Z,20.01
2022-09-13T20:10:18.242Z,19.65
2022-09-13T20:12:51.561Z,19.79
2022-09-13T20:15:24.586Z,19.71
2022-09-13T20:17:55.342Z,19.82
2022-09-13T20:20:26.561Z,19.73
2022-09-13T20:22:56.921Z,19.82
2022-09-13T20:25:25.514Z,19.59
2022-09-13T20:27:54.991Z,19.89
2022-09-13T20:30:24.631Z,19.70
2022-09-13T20:32:54.674Z,20.10
2022-09-13T20:35:23.634Z,19.85
2022-09-13T20:37:55.524Z,19.85
2022-09-13T20:40:26.728Z,19.98
2022-09-13T20:42:57.142Z,19.88
2022-09-13T20:45:26.358Z,19.64
2022-09-13T20:47:55.346Z,19.83
2022-09-13T20:50:24.773Z,19.67
2022-09-13T20:52:53.374Z,19.69
2022-09-13T20:55:21.534Z,19.58
2022-09-13T20:57:51.738Z,20.00
2022-09-13T21:00:19.956Z,19.66
2022-09-13T21:02:48.689Z,19.73
2022-09-13T21:05:18.820Z,19.75
2022-09-13T21:08:04.205Z,19.78
2022-09-13T21:10:32.673Z,19.91
2022-09-13T21:13:04.016Z,20.26
2022-09-13T21:15:32.242Z,20.05
2022-09-13T21:18:00.650Z,19.89
2022-09-13T21:20:29.258Z,19.92
2022-09-13T21:22:57.445Z,19.96
2022-09-13T21:25:25.920Z,20.00
2022-09-13T21:27:54.251Z,19.97
2022-09-13T21:30:24.040Z,20.30
2022-09-13T21:32:52.486Z,19.86
2022-09-13T21:35:20.812Z,19.89
2022-09-13T21:37:48.935Z,19.88
2022-09-13T21:40:17.653Z,19.94
2022-09-13T21:42:45.928Z,19.88
2022-09-13T21:45:14.258Z,19.87
2022-09-13T21:47:44.146Z,20.05
2022-09-13T21:50:12.465Z,19.71
2022-09-13T21:52:41.574Z,19.72
2022-09-13T21:55:10.438Z,19.64
2022-09-13T21:57:38.733Z,19.61
2022-09-13T22:00:09.314Z,19.74
2022-09-13T22:02:37.958Z,19.83
2022-09-13T22:05:08.291Z,20.04
2022-09-13T22:07:36.579Z,19.78
2022-09-13T22:10:05.367Z,19.79
2022-09-13T22:12:33.648Z,19.78
2022-09-13T22:15:01.811Z,19.59
2022-09-13T22:17:30.773Z,19.63
2022-09-13T22:19:58.866Z,19.71
2022-09-13T22:22:29.372Z,20.03
2022-09-13T22:24:57.665Z,19.69
2022-09-13T22:27:25.832Z,19.70
2022-09-13T22:29:53.912Z,19.77
2022-09-13T22:32:23.608Z,19.80
2022-09-13T22:34:53.438Z,19.75
2022-09-13T22:37:21.574Z,19.69
2022-09-13T22:39:51.463Z,20.03
2022-09-13T22:42:19.692Z,19.69
2022-09-13T22:44:48.292Z,19.73
2022-09-13T22:47:16.785Z,19.62
2022-09-13T22:49:45.010Z,19.60
2022-09-13T22:52:13.198Z,19.66
2022-09-13T22:54:41.910Z,19.73
2022-09-13T22:57:11.397Z,19.89
2022-09-13T22:59:39.648Z,19.59
2022-09-13T23:02:07.864Z,19.64
2022-09-13T23:04:36.009Z,19.75
2022-09-13T23:07:04.116Z,19.79
2022-09-13T23:09:32.421Z,19.65
2022-09-13T23:12:00.636Z,19.72
2022-09-13T23:14:30.042Z,20.08
2022-09-13T23:16:58.511Z,19.60
2022-09-13T23:19:28.242Z,19.68
2022-09-13T23:21:56.341Z,19.72
2022-09-13T23:24:25.222Z,19.78
2022-09-13T23:26:56.019Z,20.10
2022-09-13T23:29:24.435Z,19.77
2022-09-13T23:31:54.963Z,20.14
2022-09-13T23:34:23.646Z,19.78
2022-09-13T23:36:52.558Z,19.79
2022-09-13T23:39:21.837Z,19.89
2022-09-13T23:41:51.205Z,19.94
2022-09-13T23:44:19.396Z,19.79
2022-09-13T23:46:47.820Z,19.73
2022-09-13T23:49:17.362Z,20.14
2022-09-13T23:51:45.718Z,19.88
2022-09-13T23:54:15.241Z,20.20
2022-09-13T23:56:44.024Z,20.02
2022-09-13T23:59:13.615Z,20.24
